Time,TemperatureF,DewpointF,PressureIn,WindDirection,WindDirectionDegrees,WindSpeedMPH,WindSpeedGustMPH,Humidity,HourlyPrecipIn,Conditions,Clouds,dailyrainin,SoftwareType,DateUTC
2013-11-02 00:03:00,61.4,51.9,30.06,North,355,3.5,3.5,71,0.00,CLR,,0.00,WeatherDisplay:10.37,2013-11-02 05:03:00,
2013-11-02 00:08:00,61.2,51.7,30.06,North,355,4.6,4.6,71,0.00,CLR,,0.00,WeatherDisplay:10.37,2013-11-02 05:08:00,
2013-11-02 00:13:00,61.1,51.6,30.06,North,360,3.5,3.5,71,0.00,CLR,,0.00,WeatherDisplay:10.37,2013-11-02 05:13:00,
2013-11-02 00:18:00,61.2,51.7,30.06,North,360,3.5,3.5,71,0.00,CLR,,0.00,WeatherDisplay:10.37,2013-11-02 05:18:00,
2013-11-02 00:23:00,61.1,51.6,30.06,North,355,3.5,3.5,71,0.00,CLR,,0.00,WeatherDisplay:10.37,2013-11-02 05:23:00,
2013-11-02 00:28:00,61.1,52.0,30.06,North,355,3.5,3.5,72,0.00,CLR,,0.00,WeatherDisplay:10.37,2013-11-02 05:28:00,
2013-11-02 00:33:00,61.0,51.9,30.07,North,360,5.8,5.8,72,0.00,CLR,,0.00,WeatherDisplay:10.37,2013-11-02 05:33:00,
2013-11-02 00:38:00,60.8,51.7,30.07,North,360,3.5,3.5,72,0.00,CLR,,0.00,WeatherDisplay:10.37,2013-11-02 05:38:00,
2013-11-02 00:43:00,60.7,51.6,30.07,North,355,3.5,3.5,72,0.00,CLR,,0.00,WeatherDisplay:10.37,2013-11-02 05:43:00,
2013-11-02 00:48:00,60.6,51.5,30.07,North,360,3.5,3.5,72,0.00,CLR,,0.00,WeatherDisplay:10.37,2013-11-02 05:48:00,
2013-11-02 00:53:00,60.4,51.3,30.08,North,360,1.1,1.1,72,0.00,CLR,,0.00,WeatherDisplay:10.37,2013-11-02 05:53:00,
2013-11-02 00:58:00,60.2,51.1,30.08,North,360,4.0,4.0,72,0.00,CLR,,0.00,WeatherDisplay:10.37,2013-11-02 05:58:00,
2013-11-02 01:03:00,60.0,50.9,30.08,North,360,3.5,3.5,72,0.00,CLR,,0.00,WeatherDisplay:10.37,2013-11-02 06:03:00,
2013-11-02 01:08:00,59.8,50.8,30.08,North,360,0.0,0.0,72,0.00,CLR,,0.00,WeatherDisplay:10.37,2013-11-02 06:08:00,
2013-11-02 01:13:00,59.5,50.5,30.08,North,5,9.2,9.2,72,0.00,CLR,,0.00,WeatherDisplay:10.37,2013-11-02 06:13:00,
2013-11-02 01:18:00,59.0,50.0,30.08,North,9,4.6,4.6,72,0.00,CLR,,0.00,WeatherDisplay:10.37,2013-11-02 06:18:00,
2013-11-02 01:23:00,59.0,49.6,30.08,North,11,3.5,3.5,71,0.00,CLR,,0.00,WeatherDisplay:10.37,2013-11-02 06:23:00,
2013-11-02 01:28:00,59.0,49.6,30.08,North,11,2.3,0.0,71,0.00,CLR,,0.00,WeatherDisplay:10.37,2013-11-02 06:28:00,
2013-11-02 01:33:00,58.6,49.6,30.09,North,11,0.0,0.0,72,0.00,CLR,,0.00,WeatherDisplay:10.37,2013-11-02 06:33:00,
2013-11-02 01:38:00,58.4,49.4,30.09,North,11,2.0,2.0,72,0.00,CLR,,0.00,WeatherDisplay:10.37,2013-11-02 06:38:00,
2013-11-02 01:43:00,58.2,49.6,30.09,North,11,0.0,0.0,73,0.00,CLR,,0.00,WeatherDisplay:10.37,2013-11-02 06:43:00,
2013-11-02 01:48:00,58.0,49.4,30.09,North,11,0.0,0.0,73,0.00,CLR,,0.00,WeatherDisplay:10.37,2013-11-02 06:48:00,
2013-11-02 01:53:00,57.8,49.2,30.09,North,11,0.0,0.0,73,0.00,CLR,,0.00,WeatherDisplay:10.37,2013-11-02 06:53:00,
2013-11-02 01:58:00,57.5,48.9,30.09,North,11,0.0,0.0,73,0.00,CLR,,0.00,WeatherDisplay:10.37,2013-11-02 06:58:00,
2013-11-02 02:03:00,57.2,48.6,30.10,North,11,0.0,0.0,73,0.00,CLR,,0.00,WeatherDisplay:10.37,2013-11-02 07:03:00,
2013-11-02 02:08:00,57.0,48.8,30.10,North,11,0.0,0.0,74,0.00,CLR,,0.00,WeatherDisplay:10.37,2013-11-02 07:08:00,
2013-11-02 02:13:00,56.8,49.0,30.10,North,11,1.1,0.0,75,0.00,CLR,,0.00,WeatherDisplay:10.37,2013-11-02 07:13:00,
2013-11-02 02:18:00,56.8,49.0,30.10,North,11,0.0,0.0,75,0.00,CLR,,0.00,WeatherDisplay:10.37,2013-11-02 07:18:00,
2013-11-02 02:23:00,56.7,48.5,30.10,North,11,0.0,0.0,74,0.00,CLR,,0.00,WeatherDisplay:10.37,2013-11-02 07:23:00,
2013-11-02 02:28:00,56.6,48.4,30.11,North,11,0.0,0.0,74,0.00,CLR,,0.00,WeatherDisplay:10.37,2013-11-02 07:28:00,
2013-11-02 02:33:00,56.6,48.8,30.11,North,11,0.0,0.2,75,0.00,CLR,,0.00,WeatherDisplay:10.37,2013-11-02 07:33:00,
2013-11-02 02:38:00,56.6,48.8,30.11,North,10,3.5,3.5,75,0.00,CLR,,0.00,WeatherDisplay:10.37,2013-11-02 07:38:00,
2013-11-02 02:43:00,56.6,48.4,30.11,North,10,1.1,1.1,74,0.00,CLR,,0.00,WeatherDisplay:10.37,2013-11-02 07:43:00,
2013-11-02 02:48:00,56.6,48.4,30.11,North,10,3.5,3.5,74,0.00,CLR,,0.00,WeatherDisplay:10.37,2013-11-02 07:48:00,
2013-11-02 02:53:00,56.6,48.0,30.12,North,9,3.5,3.5,73,0.00,CLR,,0.00,WeatherDisplay:10.37,2013-11-02 07:53:00,
2013-11-02 02:58:00,56.5,47.6,30.12,North,9,3.5,3.5,72,0.00,CLR,,0.00,WeatherDisplay:10.37,2013-11-02 07:58:00,
2013-11-02 03:03:00,56.4,47.5,30.12,North,9,2.3,2.3,72,0.00,CLR,,0.00,WeatherDisplay:10.37,2013-11-02 08:03:00,
2013-11-02 03:08:00,56.2,47.3,30.12,North,9,3.5,3.5,72,0.00,CLR,,0.00,WeatherDisplay:10.37,2013-11-02 08:08:00,
2013-11-02 03:13:00,56.2,47.7,30.12,North,9,0.0,0.5,73,0.00,CLR,,0.00,WeatherDisplay:10.37,2013-11-02 08:13:00,
2013-11-02 03:18:00,56.1,47.6,30.12,North,5,1.1,1.1,73,0.00,CLR,,0.00,WeatherDisplay:10.37,2013-11-02 08:18:00,
2013-11-02 03:23:00,56.0,47.1,30.13,North,9,5.8,5.8,72,0.00,CLR,,0.00,WeatherDisplay:10.37,2013-11-02 08:23:00,
2013-11-02 03:28:00,55.8,46.9,30.13,North,9,2.3,2.3,72,0.00,CLR,,0.00,WeatherDisplay:10.37,2013-11-02 08:28:00,
2013-11-02 03:33:00,55.7,47.2,30.13,North,9,1.1,0.0,73,0.00,CLR,,0.00,WeatherDisplay:10.37,2013-11-02 08:33:00,
2013-11-02 03:38:00,55.5,47.0,30.13,North,9,1.1,0.0,73,0.00,CLR,,0.00,WeatherDisplay:10.37,2013-11-02 08:38:00,
2013-11-02 03:43:00,55.5,47.7,30.13,North,9,0.0,0.6,75,0.00,CLR,,0.00,WeatherDisplay:10.37,2013-11-02 08:43:00,
2013-11-02 03:48:00,55.6,47.8,30.13,North,9,0.0,0.0,75,0.00,CLR,,0.00,WeatherDisplay:10.37,2013-11-02 08:48:00,
2013-11-02 03:53:00,55.6,47.8,30.14,North,9,1.1,1.1,75,0.00,CLR,,0.00,WeatherDisplay:10.37,2013-11-02 08:53:00,
2013-11-02 03:58:00,55.5,47.7,30.14,North,9,1.1,1.1,75,0.00,CLR,,0.00,WeatherDisplay:10.37,2013-11-02 08:58:00,
2013-11-02 04:03:00,55.5,47.3,30.14,North,9,1.1,1.1,74,0.00,CLR,,0.00,WeatherDisplay:10.37,2013-11-02 09:03:00,
2013-11-02 04:08:00,55.3,47.2,30.14,North,9,3.5,3.5,74,0.00,CLR,,0.00,WeatherDisplay:10.37,2013-11-02 09:08:00,
2013-11-02 04:13:00,55.1,47.3,30.14,North,9,0.0,0.0,75,0.00,CLR,,0.00,WeatherDisplay:10.37,2013-11-02 09:13:00,
2013-11-02 04:18:00,55.2,47.8,30.14,North,9,0.0,0.0,76,0.00,CLR,,0.00,WeatherDisplay:10.37,2013-11-02 09:18:00,
2013-11-02 04:23:00,55.2,47.8,30.14,North,9,0.0,0.0,76,0.00,CLR,,0.00,WeatherDisplay:10.37,2013-11-02 09:23:00,
2013-11-02 04:28:00,55.2,47.8,30.14,North,9,0.0,0.0,76,0.00,CLR,,0.00,WeatherDisplay:10.37,2013-11-02 09:28:00,
2013-11-02 04:33:00,55.2,47.8,30.14,North,9,0.0,0.0,76,0.00,CLR,,0.00,WeatherDisplay:10.37,2013-11-02 09:33:00,
2013-11-02 04:38:00,55.3,47.9,30.14,North,9,0.0,0.0,76,0.00,CLR,,0.00,WeatherDisplay:10.37,2013-11-02 09:38:00,
2013-11-02 04:43:00,55.3,47.9,30.14,North,9,0.0,0.0,76,0.00,CLR,,0.00,WeatherDisplay:10.37,2013-11-02 09:43:00,
2013-11-02 04:48:00,55.2,47.8,30.15,North,9,0.0,0.0,76,0.00,CLR,,0.00,WeatherDisplay:10.37,2013-11-02 09:48:00,
2013-11-02 04:53:00,55.0,47.6,30.15,North,9,0.0,0.0,76,0.00,CLR,,0.00,WeatherDisplay:10.37,2013-11-02 09:53:00,
2013-11-02 04:58:00,55.0,47.6,30.15,North,9,0.0,0.0,76,0.00,CLR,,0.00,WeatherDisplay:10.37,2013-11-02 09:58:00,
2013-11-02 05:03:00,54.9,47.5,30.15,North,9,0.0,0.0,76,0.00,CLR,,0.00,WeatherDisplay:10.37,2013-11-02 10:03:00,
2013-11-02 05:08:00,54.9,47.8,30.15,North,5,0.0,0.0,77,0.00,CLR,,0.00,WeatherDisplay:10.37,2013-11-02 10:08:00,
2013-11-02 05:13:00,54.8,47.4,30.16,North,5,0.0,0.0,76,0.00,CLR,,0.00,WeatherDisplay:10.37,2013-11-02 10:13:00,
2013-11-02 05:18:00,54.6,47.5,30.16,North,5,3.5,3.5,77,0.00,CLR,,0.00,WeatherDisplay:10.37,2013-11-02 10:18:00,
2013-11-02 05:23:00,54.4,47.3,30.16,North,5,2.3,2.3,77,0.00,CLR,,0.00,WeatherDisplay:10.37,2013-11-02 10:23:00,
2013-11-02 05:28:00,54.2,47.1,30.16,North,5,3.5,3.5,77,0.00,CLR,,0.00,WeatherDisplay:10.37,2013-11-02 10:28:00,
2013-11-02 05:33:00,54.2,47.5,30.17,North,5,0.0,0.0,78,0.00,CLR,,0.00,WeatherDisplay:10.37,2013-11-02 10:33:00,
2013-11-02 05:38:00,54.0,47.3,30.17,North,5,1.1,1.1,78,0.00,CLR,,0.00,WeatherDisplay:10.37,2013-11-02 10:38:00,
2013-11-02 05:43:00,53.7,46.7,30.17,North,5,3.5,3.5,77,0.00,CLR,,0.00,WeatherDisplay:10.37,2013-11-02 10:43:00,
2013-11-02 05:48:00,53.6,46.6,30.17,North,5,3.5,3.5,77,0.00,CLR,,0.00,WeatherDisplay:10.37,2013-11-02 10:48:00,
2013-11-02 05:53:00,53.6,46.9,30.17,North,5,3.5,3.5,78,0.00,CLR,,0.00,WeatherDisplay:10.37,2013-11-02 10:53:00,
2013-11-02 05:58:00,53.6,46.9,30.17,North,5,3.5,3.5,78,0.00,CLR,,0.00,WeatherDisplay:10.37,2013-11-02 10:58:00,
2013-11-02 06:03:00,53.6,46.6,30.17,North,360,3.5,3.5,77,0.00,CLR,,0.00,WeatherDisplay:10.37,2013-11-02 11:03:00,
2013-11-02 06:08:00,53.8,47.1,30.17,North,360,1.1,0.0,78,0.00,CLR,,0.00,WeatherDisplay:10.37,2013-11-02 11:08:00,
2013-11-02 06:13:00,53.6,46.6,30.17,North,360,3.5,3.5,77,0.00,CLR,,0.00,WeatherDisplay:10.37,2013-11-02 11:13:00,
2013-11-02 06:18:00,53.6,46.9,30.17,North,360,0.0,0.0,78,0.00,CLR,,0.00,WeatherDisplay:10.37,2013-11-02 11:18:00,
2013-11-02 06:23:00,53.6,46.9,30.18,North,360,3.0,3.0,78,0.00,CLR,,0.00,WeatherDisplay:10.37,2013-11-02 11:23:00,
2013-11-02 06:28:00,53.6,46.6,30.18,North,360,1.1,1.1,77,0.00,CLR,,0.00,WeatherDisplay:10.37,2013-11-02 11:28:00,
2013-11-02 06:33:00,53.4,46.4,30.18,North,360,2.3,2.3,77,0.00,CLR,,0.00,WeatherDisplay:10.37,2013-11-02 11:33:00,
2013-11-02 06:38:00,53.3,46.3,30.18,North,360,2.3,2.3,77,0.00,CLR,,0.00,WeatherDisplay:10.37,2013-11-02 11:38:00,
2013-11-02 06:43:00,53.2,46.5,30.17,North,360,1.0,0.0,78,0.00,CLR,,0.00,WeatherDisplay:10.37,2013-11-02 11:43:00,
2013-11-02 06:48:00,53.1,46.1,30.18,North,360,1.1,1.1,77,0.00,CLR,,0.00,WeatherDisplay:10.37,2013-11-02 11:48:00,
2013-11-02 06:53:00,53.0,46.3,30.18,North,360,1.1,1.1,78,0.00,CLR,,0.00,WeatherDisplay:10.37,2013-11-02 11:53:00,
2013-11-02 06:58:00,53.0,46.3,30.18,North,360,0.0,0.0,78,0.00,CLR,,0.00,WeatherDisplay:10.37,2013-11-02 11:58:00,
2013-11-02 07:03:00,53.0,46.7,30.19,North,360,0.0,0.0,79,0.00,CLR,,0.00,WeatherDisplay:10.37,2013-11-02 12:03:00,
2013-11-02 07:08:00,52.7,46.0,30.18,North,360,1.0,1.0,78,0.00,CLR,,0.00,WeatherDisplay:10.37,2013-11-02 12:08:00,
2013-11-02 07:13:00,52.5,45.8,30.19,North,360,0.0,0.0,78,0.00,CLR,,0.00,WeatherDisplay:10.37,2013-11-02 12:13:00,
2013-11-02 07:19:00,52.4,46.1,30.19,North,360,1.0,0.0,79,0.00,CLR,,0.00,WeatherDisplay:10.37,2013-11-02 12:19:00,
2013-11-02 07:24:00,52.4,46.1,30.19,North,360,0.0,0.0,79,0.00,CLR,,0.00,WeatherDisplay:10.37,2013-11-02 12:24:00,
2013-11-02 07:29:00,52.3,46.0,30.19,North,360,1.1,0.0,79,0.00,CLR,,0.00,WeatherDisplay:10.37,2013-11-02 12:29:00,
2013-11-02 07:34:00,52.3,46.3,30.19,North,360,2.3,2.3,80,0.00,CLR,,0.00,WeatherDisplay:10.37,2013-11-02 12:34:00,
2013-11-02 07:39:00,52.3,46.0,30.19,North,360,0.0,0.0,79,0.00,CLR,,0.00,WeatherDisplay:10.37,2013-11-02 12:39:00,
2013-11-02 07:44:00,52.3,46.3,30.20,North,360,0.0,0.0,80,0.00,CLR,,0.00,WeatherDisplay:10.37,2013-11-02 12:44:00,
2013-11-02 07:49:00,52.2,46.2,30.20,North,360,0.0,0.0,80,0.00,CLR,,0.00,WeatherDisplay:10.37,2013-11-02 12:49:00,
2013-11-02 07:54:00,52.1,45.8,30.20,North,360,0.0,0.0,79,0.00,CLR,,0.00,WeatherDisplay:10.37,2013-11-02 12:54:00,
2013-11-02 07:59:00,51.9,45.6,30.20,North,360,0.0,0.0,79,0.00,CLR,,0.00,WeatherDisplay:10.37,2013-11-02 12:59:00,
2013-11-02 08:04:00,51.7,45.4,30.20,North,360,0.0,0.0,79,0.00,CLR,,0.00,WeatherDisplay:10.37,2013-11-02 13:04:00,
2013-11-02 08:09:00,51.6,45.6,30.21,North,360,0.0,0.0,80,0.00,CLR,,0.00,WeatherDisplay:10.37,2013-11-02 13:09:00,
2013-11-02 08:14:00,51.6,45.6,30.21,North,360,0.0,0.0,80,0.00,CLR,,0.00,WeatherDisplay:10.37,2013-11-02 13:14:00,
2013-11-02 08:19:00,51.7,45.7,30.22,North,360,0.0,0.0,80,0.00,CLR,,0.00,WeatherDisplay:10.37,2013-11-02 13:19:00,
2013-11-02 08:24:00,51.8,45.5,30.22,North,360,1.1,0.0,79,0.00,CLR,,0.00,WeatherDisplay:10.37,2013-11-02 13:24:00,
2013-11-02 08:29:00,52.0,45.7,30.22,North,360,0.0,0.0,79,0.00,CLR,,0.00,WeatherDisplay:10.37,2013-11-02 13:29:00,
2013-11-02 08:34:00,52.2,45.9,30.22,North,360,0.0,0.0,79,0.00,CLR,,0.00,WeatherDisplay:10.37,2013-11-02 13:34:00,
2013-11-02 08:39:00,52.6,46.3,30.22,North,360,0.0,0.0,79,0.00,CLR,,0.00,WeatherDisplay:10.37,2013-11-02 13:39:00,
2013-11-02 08:44:00,52.9,46.2,30.22,North,360,2.3,2.3,78,0.00,CLR,,0.00,WeatherDisplay:10.37,2013-11-02 13:44:00,
2013-11-02 08:49:00,53.1,46.4,30.23,North,360,0.0,0.0,78,0.00,CLR,,0.00,WeatherDisplay:10.37,2013-11-02 13:49:00,
2013-11-02 08:54:00,53.3,46.3,30.23,North,360,0.0,0.0,77,0.00,CLR,,0.00,WeatherDisplay:10.37,2013-11-02 13:54:00,
2013-11-02 08:59:00,53.6,46.2,30.23,North,360,2.3,2.3,76,0.00,CLR,,0.00,WeatherDisplay:10.37,2013-11-02 13:59:00,
2013-11-02 09:04:00,53.9,46.9,30.23,North,360,1.1,1.1,77,0.00,CLR,,0.00,WeatherDisplay:10.37,2013-11-02 14:04:00,
2013-11-02 09:09:00,54.2,46.4,30.24,North,360,3.5,3.5,75,0.00,CLR,,0.00,WeatherDisplay:10.37,2013-11-02 14:09:00,
2013-11-02 09:14:00,54.5,46.7,30.24,North,355,3.5,3.5,75,0.00,CLR,,0.00,WeatherDisplay:10.37,2013-11-02 14:14:00,
2013-11-02 09:19:00,54.9,46.8,30.24,North,355,4.0,4.0,74,0.00,CLR,,0.00,WeatherDisplay:10.37,2013-11-02 14:19:00,
2013-11-02 09:24:00,55.5,47.0,30.24,North,355,5.8,5.8,73,0.00,CLR,,0.00,WeatherDisplay:10.37,2013-11-02 14:24:00,
2013-11-02 09:29:00,55.9,46.6,30.25,North,355,5.8,5.8,71,0.00,CLR,,0.00,WeatherDisplay:10.37,2013-11-02 14:29:00,
2013-11-02 09:34:00,56.3,46.6,30.25,North,5,8.1,8.1,70,0.00,CLR,,0.00,WeatherDisplay:10.37,2013-11-02 14:34:00,
2013-11-02 09:39:00,56.5,46.1,30.25,NNE,13,11.5,11.5,68,0.00,CLR,,0.00,WeatherDisplay:10.37,2013-11-02 14:39:00,
2013-11-02 09:44:00,56.8,46.0,30.25,NNE,13,15.0,15.0,67,0.00,CLR,,0.00,WeatherDisplay:10.37,2013-11-02 14:44:00,
2013-11-02 09:49:00,57.0,45.7,30.26,North,360,11.5,11.5,66,0.00,CLR,,0.00,WeatherDisplay:10.37,2013-11-02 14:49:00,
2013-11-02 09:54:00,57.1,45.8,30.26,North,355,11.5,11.5,66,0.00,CLR,,0.00,WeatherDisplay:10.37,2013-11-02 14:54:00,
2013-11-02 09:59:00,57.3,45.6,30.26,NNW,344,11.0,11.0,65,0.00,CLR,,0.00,WeatherDisplay:10.37,2013-11-02 14:59:00,
2013-11-02 10:04:00,57.6,45.9,30.26,North,5,6.9,6.9,65,0.00,CLR,,0.00,WeatherDisplay:10.37,2013-11-02 15:04:00,
2013-11-02 10:09:00,58.0,45.5,30.27,NNW,347,12.0,12.0,63,0.00,CLR,,0.00,WeatherDisplay:10.37,2013-11-02 15:09:00,
2013-11-02 10:14:00,58.2,45.2,30.27,North,5,12.0,12.0,62,0.00,CLR,,0.00,WeatherDisplay:10.37,2013-11-02 15:14:00,
2013-11-02 10:19:00,58.5,45.1,30.27,North,9,10.4,10.4,61,0.00,CLR,,0.00,WeatherDisplay:10.37,2013-11-02 15:19:00,
2013-11-02 10:24:00,58.9,45.5,30.27,North,355,10.4,10.4,61,0.00,CLR,,0.00,WeatherDisplay:10.37,2013-11-02 15:24:00,
2013-11-02 10:29:00,59.0,46.0,30.28,North,355,4.6,4.6,62,0.00,CLR,,0.00,WeatherDisplay:10.37,2013-11-02 15:29:00,
2013-11-02 10:34:00,59.4,45.9,30.28,NNE,13,11.5,11.5,61,0.00,CLR,,0.00,WeatherDisplay:10.37,2013-11-02 15:34:00,
2013-11-02 10:39:00,59.6,46.1,30.28,North,5,9.0,9.0,61,0.00,CLR,,0.00,WeatherDisplay:10.37,2013-11-02 15:39:00,
2013-11-02 10:44:00,59.6,45.7,30.28,NNE,17,13.8,13.8,60,0.00,CLR,,0.00,WeatherDisplay:10.37,2013-11-02 15:44:00,
2013-11-02 10:49:00,59.8,45.4,30.28,North,355,11.5,11.5,59,0.00,CLR,,0.00,WeatherDisplay:10.37,2013-11-02 15:49:00,
2013-11-02 10:54:00,59.9,46.0,30.28,NNE,14,6.0,6.0,60,0.00,CLR,,0.00,WeatherDisplay:10.37,2013-11-02 15:54:00,
2013-11-02 10:59:00,60.2,46.3,30.28,North,355,9.2,9.2,60,0.00,CLR,,0.00,WeatherDisplay:10.37,2013-11-02 15:59:00,
2013-11-02 11:04:00,60.5,46.1,30.28,NNE,13,8.1,8.1,59,0.00,CLR,,0.00,WeatherDisplay:10.37,2013-11-02 16:04:00,
2013-11-02 11:09:00,60.8,46.8,30.28,North,350,6.9,6.9,60,0.00,CLR,,0.00,WeatherDisplay:10.37,2013-11-02 16:09:00,
2013-11-02 11:14:00,60.8,45.5,30.28,North,349,11.5,11.5,57,0.00,CLR,,0.00,WeatherDisplay:10.37,2013-11-02 16:14:00,
2013-11-02 11:19:00,61.0,45.7,30.28,North,5,11.5,11.5,57,0.00,CLR,,0.00,WeatherDisplay:10.37,2013-11-02 16:19:00,
2013-11-02 11:24:00,61.4,46.0,30.28,NNE,13,10.0,10.0,57,0.00,CLR,,0.00,WeatherDisplay:10.37,2013-11-02 16:24:00,
2013-11-02 11:29:00,61.7,45.4,30.28,North,355,11.5,11.5,55,0.00,CLR,,0.00,WeatherDisplay:10.37,2013-11-02 16:29:00,
2013-11-02 11:34:00,62.0,45.6,30.28,NNE,17,7.0,7.0,55,0.00,CLR,,0.00,WeatherDisplay:10.37,2013-11-02 16:34:00,
2013-11-02 11:39:00,62.3,46.4,30.28,North,355,9.2,9.2,56,0.00,CLR,,0.00,WeatherDisplay:10.37,2013-11-02 16:39:00,
2013-11-02 11:44:00,62.4,45.5,30.28,North,5,9.2,9.2,54,0.00,CLR,,0.00,WeatherDisplay:10.37,2013-11-02 16:44:00,
2013-11-02 11:49:00,62.3,44.4,30.28,NNE,14,11.5,11.5,52,0.00,CLR,,0.00,WeatherDisplay:10.37,2013-11-02 16:49:00,
2013-11-02 11:54:00,62.6,45.2,30.28,North,360,6.9,6.9,53,0.00,CLR,,0.00,WeatherDisplay:10.37,2013-11-02 16:54:00,
2013-11-02 11:59:00,62.9,45.5,30.28,North,5,10.4,10.4,53,0.00,CLR,,0.00,WeatherDisplay:10.37,2013-11-02 16:59:00,
2013-11-02 12:04:00,63.1,44.7,30.27,North,355,11.5,11.5,51,0.00,CLR,,0.00,WeatherDisplay:10.37,2013-11-02 17:04:00,
2013-11-02 12:09:00,63.4,44.9,30.27,NNW,348,5.8,5.8,51,0.00,CLR,,0.00,WeatherDisplay:10.37,2013-11-02 17:09:00,
2013-11-02 12:14:00,63.2,44.2,30.27,NNW,346,6.9,6.9,50,0.00,CLR,,0.00,WeatherDisplay:10.37,2013-11-02 17:14:00,
2013-11-02 12:19:00,63.4,44.4,30.27,NNW,347,5.8,5.8,50,0.00,CLR,,0.00,WeatherDisplay:10.37,2013-11-02 17:19:00,
2013-11-02 12:24:00,63.6,44.6,30.27,NNE,13,9.2,9.2,50,0.00,CLR,,0.00,WeatherDisplay:10.37,2013-11-02 17:24:00,
2013-11-02 12:29:00,63.9,44.9,30.27,NNW,345,10.0,10.0,50,0.00,CLR,,0.00,WeatherDisplay:10.37,2013-11-02 17:29:00,
2013-11-02 12:34:00,63.9,43.3,30.27,NNW,344,13.8,13.8,47,0.00,CLR,,0.00,WeatherDisplay:10.37,2013-11-02 17:34:00,
2013-11-02 12:39:00,63.8,43.2,30.27,NNE,19,12.0,12.0,47,0.00,CLR,,0.00,WeatherDisplay:10.37,2013-11-02 17:39:00,
2013-11-02 12:44:00,64.1,42.9,30.26,NNE,33,9.2,9.2,46,0.00,CLR,,0.00,WeatherDisplay:10.37,2013-11-02 17:44:00,
2013-11-02 12:49:00,64.4,43.2,30.26,NNE,19,5.8,5.8,46,0.00,CLR,,0.00,WeatherDisplay:10.37,2013-11-02 17:49:00,
2013-11-02 12:54:00,64.7,43.4,30.26,North,5,12.0,12.0,46,0.00,CLR,,0.00,WeatherDisplay:10.37,2013-11-02 17:54:00,
2013-11-02 12:59:00,64.9,44.7,30.26,North,355,7.0,7.0,48,0.00,CLR,,0.00,WeatherDisplay:10.37,2013-11-02 17:59:00,
2013-11-02 13:04:00,65.0,44.8,30.26,North,350,5.8,5.8,48,0.00,CLR,,0.00,WeatherDisplay:10.37,2013-11-02 18:04:00,
2013-11-02 13:09:00,64.8,44.6,30.26,NNE,16,11.5,11.5,48,0.00,CLR,,0.00,WeatherDisplay:10.37,2013-11-02 18:09:00,
2013-11-02 13:14:00,64.9,44.7,30.26,North,5,6.0,6.0,48,0.00,CLR,,0.00,WeatherDisplay:10.37,2013-11-02 18:14:00,
2013-11-02 13:19:00,64.9,43.0,30.26,North,351,12.7,12.7,45,0.00,CLR,,0.00,WeatherDisplay:10.37,2013-11-02 18:19:00,
2013-11-02 13:24:00,65.1,42.6,30.25,North,355,6.9,6.9,44,0.00,CLR,,0.00,WeatherDisplay:10.37,2013-11-02 18:24:00,
2013-11-02 13:29:00,65.4,42.9,30.25,North,355,5.8,5.8,44,0.00,CLR,,0.00,WeatherDisplay:10.37,2013-11-02 18:29:00,
2013-11-02 13:34:00,65.6,42.5,30.25,North,360,11.5,11.5,43,0.00,CLR,,0.00,WeatherDisplay:10.37,2013-11-02 18:34:00,
2013-11-02 13:39:00,65.4,42.3,30.24,North,355,11.5,11.5,43,0.00,CLR,,0.00,WeatherDisplay:10.37,2013-11-02 18:39:00,
2013-11-02 13:44:00,65.8,42.1,30.24,NNE,15,11.5,11.5,42,0.00,CLR,,0.00,WeatherDisplay:10.37,2013-11-02 18:44:00,
2013-11-02 13:49:00,66.1,43.5,30.24,North,355,11.5,11.5,44,0.00,CLR,,0.00,WeatherDisplay:10.37,2013-11-02 18:49:00,
2013-11-02 13:54:00,66.2,41.8,30.24,NNE,16,12.7,12.7,41,0.00,CLR,,0.00,WeatherDisplay:10.37,2013-11-02 18:54:00,
2013-11-02 13:59:00,66.2,43.0,30.24,North,5,8.1,8.1,43,0.00,CLR,,0.00,WeatherDisplay:10.37,2013-11-02 18:59:00,
2013-11-02 14:04:00,66.5,42.1,30.24,NNW,348,13.8,13.8,41,0.00,CLR,,0.00,WeatherDisplay:10.37,2013-11-02 19:04:00,
2013-11-02 14:09:00,66.2,42.4,30.23,North,350,10.4,10.4,42,0.00,CLR,,0.00,WeatherDisplay:10.37,2013-11-02 19:09:00,
2013-11-02 14:14:00,65.9,42.8,30.23,North,360,11.5,11.5,43,0.00,CLR,,0.00,WeatherDisplay:10.37,2013-11-02 19:14:00,
2013-11-02 14:19:00,65.9,42.1,30.23,North,355,9.2,9.2,42,0.00,CLR,,0.00,WeatherDisplay:10.37,2013-11-02 19:19:00,
2013-11-02 14:24:00,66.0,42.2,30.23,North,349,9.2,9.2,42,0.00,CLR,,0.00,WeatherDisplay:10.37,2013-11-02 19:24:00,
2013-11-02 14:29:00,65.8,42.1,30.22,NNW,336,12.0,12.0,42,0.00,CLR,,0.00,WeatherDisplay:10.37,2013-11-02 19:29:00,
2013-11-02 14:34:00,65.9,41.5,30.22,North,351,12.7,12.7,41,0.00,CLR,,0.00,WeatherDisplay:10.37,2013-11-02 19:34:00,
2013-11-02 14:39:00,65.7,43.2,30.22,NNW,346,11.5,11.5,44,0.00,CLR,,0.00,WeatherDisplay:10.37,2013-11-02 19:39:00,
2013-11-02 14:45:00,65.8,40.8,30.22,North,355,17.3,17.3,40,0.00,CLR,,0.00,WeatherDisplay:10.37,2013-11-02 19:45:00,
2013-11-02 14:50:00,66.1,40.4,30.22,North,355,15.0,15.0,39,0.00,CLR,,0.00,WeatherDisplay:10.37,2013-11-02 19:50:00,
2013-11-02 14:55:00,65.9,40.9,30.22,North,355,17.3,17.3,40,0.00,CLR,,0.00,WeatherDisplay:10.37,2013-11-02 19:55:00,
2013-11-02 15:00:00,66.1,41.7,30.21,NNW,347,11.5,11.5,41,0.00,CLR,,0.00,WeatherDisplay:10.37,2013-11-02 20:00:00,
2013-11-02 15:05:00,66.0,41.0,30.21,North,355,5.8,5.8,40,0.00,CLR,,0.00,WeatherDisplay:10.37,2013-11-02 20:05:00,
2013-11-02 15:10:00,66.4,40.7,30.21,NNW,340,6.9,6.9,39,0.00,CLR,,0.00,WeatherDisplay:10.37,2013-11-02 20:10:00,
2013-11-02 15:15:00,66.5,41.4,30.21,North,5,13.8,13.8,40,0.00,CLR,,0.00,WeatherDisplay:10.37,2013-11-02 20:15:00,
2013-11-02 15:20:00,66.7,40.9,30.20,NNW,346,15.0,15.0,39,0.00,CLR,,0.00,WeatherDisplay:10.37,2013-11-02 20:20:00,
2013-11-02 15:25:00,66.9,40.5,30.20,North,5,11.5,11.5,38,0.00,CLR,,0.00,WeatherDisplay:10.37,2013-11-02 20:25:00,
2013-11-02 15:30:00,67.0,41.9,30.20,North,355,9.2,9.2,40,0.00,CLR,,0.00,WeatherDisplay:10.37,2013-11-02 20:30:00,
2013-11-02 15:35:00,66.5,42.7,30.20,NNW,346,10.0,10.0,42,0.00,CLR,,0.00,WeatherDisplay:10.37,2013-11-02 20:35:00,
2013-11-02 15:40:00,66.5,41.4,30.19,North,350,4.6,4.6,40,0.00,CLR,,0.00,WeatherDisplay:10.37,2013-11-02 20:40:00,
2013-11-02 15:45:00,66.5,42.7,30.19,North,355,4.6,4.6,42,0.00,CLR,,0.00,WeatherDisplay:10.37,2013-11-02 20:45:00,
2013-11-02 15:50:00,66.6,42.2,30.19,NNW,342,6.9,6.9,41,0.00,CLR,,0.00,WeatherDisplay:10.37,2013-11-02 20:50:00,
2013-11-02 15:55:00,66.7,40.9,30.20,North,360,11.5,11.5,39,0.00,CLR,,0.00,WeatherDisplay:10.37,2013-11-02 20:55:00,
2013-11-02 16:00:00,66.7,42.9,30.20,North,355,6.9,6.9,42,0.00,CLR,,0.00,WeatherDisplay:10.37,2013-11-02 21:00:00,
2013-11-02 16:05:00,66.8,40.4,30.20,North,355,11.5,11.5,38,0.00,CLR,,0.00,WeatherDisplay:10.37,2013-11-02 21:05:00,
2013-11-02 16:10:00,66.8,41.0,30.20,NNW,339,7.0,7.0,39,0.00,CLR,,0.00,WeatherDisplay:10.37,2013-11-02 21:10:00,
2013-11-02 16:15:00,66.4,42.6,30.19,NNW,336,4.6,4.6,42,0.00,CLR,,0.00,WeatherDisplay:10.37,2013-11-02 21:15:00,
2013-11-02 16:20:00,66.5,40.1,30.19,North,5,11.5,11.5,38,0.00,CLR,,0.00,WeatherDisplay:10.37,2013-11-02 21:20:00,
2013-11-02 16:25:00,66.4,40.7,30.20,North,355,6.9,6.9,39,0.00,CLR,,0.00,WeatherDisplay:10.37,2013-11-02 21:25:00,
2013-11-02 16:30:00,66.4,41.3,30.19,NNW,340,10.4,10.4,40,0.00,CLR,,0.00,WeatherDisplay:10.37,2013-11-02 21:30:00,
2013-11-02 16:35:00,66.5,41.4,30.19,NNW,336,9.2,9.2,40,0.00,CLR,,0.00,WeatherDisplay:10.37,2013-11-02 21:35:00,
2013-11-02 16:40:00,66.6,40.2,30.19,North,355,15.0,15.0,38,0.00,CLR,,0.00,WeatherDisplay:10.37,2013-11-02 21:40:00,
2013-11-02 16:45:00,66.6,40.2,30.19,North,355,11.5,11.5,38,0.00,CLR,,0.00,WeatherDisplay:10.37,2013-11-02 21:45:00,
2013-11-02 16:50:00,66.6,40.2,30.19,NNE,12,12.7,12.7,38,0.00,CLR,,0.00,WeatherDisplay:10.37,2013-11-02 21:50:00,
2013-11-02 16:55:00,66.6,40.2,30.19,North,11,9.2,9.2,38,0.00,CLR,,0.00,WeatherDisplay:10.37,2013-11-02 21:55:00,
2013-11-02 17:00:00,66.7,41.6,30.18,NNE,26,5.0,5.0,40,0.00,CLR,,0.00,WeatherDisplay:10.37,2013-11-02 22:00:00,
2013-11-02 17:05:00,66.8,40.4,30.18,North,5,6.9,6.9,38,0.00,CLR,,0.00,WeatherDisplay:10.37,2013-11-02 22:05:00,
2013-11-02 17:10:00,66.7,42.2,30.18,NNE,25,5.0,5.3,41,0.00,CLR,,0.00,WeatherDisplay:10.37,2013-11-02 22:10:00,
2013-11-02 17:15:00,66.7,41.6,30.18,North,360,10.4,10.4,40,0.00,CLR,,0.00,WeatherDisplay:10.37,2013-11-02 22:15:00,
2013-11-02 17:20:00,66.5,40.8,30.19,North,355,5.8,5.8,39,0.00,CLR,,0.00,WeatherDisplay:10.37,2013-11-02 22:20:00,
2013-11-02 17:25:00,66.6,41.5,30.18,North,5,5.8,5.8,40,0.00,CLR,,0.00,WeatherDisplay:10.37,2013-11-02 22:25:00,
2013-11-02 17:30:00,66.6,40.9,30.18,North,5,4.6,4.6,39,0.00,CLR,,0.00,WeatherDisplay:10.37,2013-11-02 22:30:00,
2013-11-02 17:35:00,66.7,41.6,30.18,NNE,12,11.5,11.5,40,0.00,CLR,,0.00,WeatherDisplay:10.37,2013-11-02 22:35:00,
2013-11-02 17:40:00,66.6,40.2,30.19,North,5,5.8,5.8,38,0.00,CLR,,0.00,WeatherDisplay:10.37,2013-11-02 22:40:00,
2013-11-02 17:45:00,66.4,40.7,30.19,North,360,3.5,3.5,39,0.00,CLR,,0.00,WeatherDisplay:10.37,2013-11-02 22:45:00,
2013-11-02 17:50:00,66.3,40.6,30.19,NNE,14,4.6,4.6,39,0.00,CLR,,0.00,WeatherDisplay:10.37,2013-11-02 22:50:00,
2013-11-02 17:55:00,66.2,41.2,30.19,NNE,12,10.4,10.4,40,0.00,CLR,,0.00,WeatherDisplay:10.37,2013-11-02 22:55:00,
2013-11-02 18:00:00,65.9,40.9,30.18,North,360,6.9,6.9,40,0.00,CLR,,0.00,WeatherDisplay:10.37,2013-11-02 23:00:00,
2013-11-02 18:05:00,65.7,40.7,30.19,NNE,13,5.8,5.8,40,0.00,CLR,,0.00,WeatherDisplay:10.37,2013-11-02 23:05:00,
2013-11-02 18:10:00,65.5,41.2,30.19,NNE,15,3.5,3.5,41,0.00,CLR,,0.00,WeatherDisplay:10.37,2013-11-02 23:10:00,
2013-11-02 18:15:00,65.1,41.4,30.19,North,9,0.0,0.0,42,0.00,CLR,,0.00,WeatherDisplay:10.37,2013-11-02 23:15:00,
2013-11-02 18:20:00,64.7,41.7,30.19,North,9,0.0,0.0,43,0.00,CLR,,0.00,WeatherDisplay:10.37,2013-11-02 23:20:00,
2013-11-02 18:25:00,64.3,41.3,30.19,North,9,0.0,0.0,43,0.00,CLR,,0.00,WeatherDisplay:10.37,2013-11-02 23:25:00,
2013-11-02 18:30:00,64.0,41.0,30.19,North,9,0.0,0.0,43,0.00,CLR,,0.00,WeatherDisplay:10.37,2013-11-02 23:30:00,
2013-11-02 18:35:00,63.4,41.1,30.19,North,9,0.0,0.0,44,0.00,CLR,,0.00,WeatherDisplay:10.37,2013-11-02 23:35:00,
2013-11-02 18:40:00,62.8,40.5,30.19,North,9,0.0,0.0,44,0.00,CLR,,0.00,WeatherDisplay:10.37,2013-11-02 23:40:00,
2013-11-02 18:45:00,62.3,40.7,30.19,North,9,0.0,0.0,45,0.00,CLR,,0.00,WeatherDisplay:10.37,2013-11-02 23:45:00,
2013-11-02 18:50:00,61.7,40.7,30.20,North,9,0.0,0.0,46,0.00,CLR,,0.00,WeatherDisplay:10.37,2013-11-02 23:50:00,
2013-11-02 18:55:00,61.1,40.7,30.20,North,9,0.0,0.0,47,0.00,CLR,,0.00,WeatherDisplay:10.37,2013-11-02 23:55:00,
2013-11-02 19:00:00,60.5,40.7,30.20,North,9,0.0,0.0,48,0.00,,,0.00,WeatherDisplay:10.37,2013-11-03 00:00:00,
2013-11-02 19:05:00,59.9,41.7,30.20,North,9,0.0,0.0,51,0.00,,,0.00,WeatherDisplay:10.37,2013-11-03 00:05:00,
2013-11-02 19:10:00,59.1,41.5,30.20,North,9,0.0,0.0,52,0.00,,,0.00,WeatherDisplay:10.37,2013-11-03 00:10:00,
2013-11-02 19:15:00,58.6,41.5,30.20,North,9,0.0,0.0,53,0.00,,,0.00,WeatherDisplay:10.37,2013-11-03 00:15:00,
2013-11-02 19:20:00,57.9,41.8,30.20,North,9,0.0,0.0,55,0.00,,,0.00,WeatherDisplay:10.37,2013-11-03 00:20:00,
2013-11-02 19:25:00,57.3,42.6,30.20,North,9,0.0,0.0,58,0.00,,,0.00,WeatherDisplay:10.37,2013-11-03 00:25:00,
2013-11-02 19:30:00,56.7,42.1,30.20,North,9,0.0,0.0,58,0.00,,,0.00,WeatherDisplay:10.37,2013-11-03 00:30:00,
2013-11-02 19:35:00,56.1,41.5,30.21,North,9,0.0,0.0,58,0.00,,,0.00,WeatherDisplay:10.37,2013-11-03 00:35:00,
2013-11-02 19:40:00,55.7,42.5,30.20,North,9,0.0,0.0,61,0.00,,,0.00,WeatherDisplay:10.37,2013-11-03 00:40:00,
2013-11-02 19:45:00,55.1,42.3,30.20,North,9,0.0,0.0,62,0.00,,,0.00,WeatherDisplay:10.37,2013-11-03 00:45:00,
2013-11-02 19:50:00,54.7,41.5,30.21,North,9,0.0,0.0,61,0.00,,,0.00,WeatherDisplay:10.37,2013-11-03 00:50:00,
2013-11-02 19:55:00,54.4,41.6,30.21,North,9,0.0,0.0,62,0.00,,,0.00,WeatherDisplay:10.37,2013-11-03 00:55:00,
2013-11-02 20:00:00,54.2,41.5,30.21,North,9,0.0,0.0,62,0.00,,,0.00,WeatherDisplay:10.37,2013-11-03 01:00:00,
2013-11-02 20:05:00,53.8,41.9,30.21,North,9,0.0,0.0,64,0.00,,,0.00,WeatherDisplay:10.37,2013-11-03 01:05:00,
2013-11-02 20:10:00,53.5,42.0,30.22,North,9,0.0,0.0,65,0.00,,,0.00,WeatherDisplay:10.37,2013-11-03 01:10:00,
2013-11-02 20:16:00,53.5,42.8,30.22,North,9,0.0,0.0,67,0.00,,,0.00,WeatherDisplay:10.37,2013-11-03 01:16:00,
2013-11-02 20:21:00,53.2,43.3,30.22,North,9,0.0,0.0,69,0.00,,,0.00,WeatherDisplay:10.37,2013-11-03 01:21:00,
2013-11-02 20:26:00,52.9,43.4,30.22,North,9,0.0,0.0,70,0.00,,,0.00,WeatherDisplay:10.37,2013-11-03 01:26:00,
2013-11-02 20:31:00,52.5,43.4,30.22,North,9,0.0,0.0,71,0.00,,,0.00,WeatherDisplay:10.37,2013-11-03 01:31:00,
2013-11-02 20:36:00,52.4,44.0,30.22,North,9,0.0,0.0,73,0.00,,,0.00,WeatherDisplay:10.37,2013-11-03 01:36:00,
2013-11-02 20:41:00,52.3,44.3,30.22,North,9,0.0,0.0,74,0.00,,,0.00,WeatherDisplay:10.37,2013-11-03 01:41:00,
2013-11-02 20:46:00,52.2,44.2,30.22,North,9,0.0,0.0,74,0.00,,,0.00,WeatherDisplay:10.37,2013-11-03 01:46:00,
2013-11-02 20:51:00,52.1,44.4,30.22,North,9,0.0,0.0,75,0.00,,,0.00,WeatherDisplay:10.37,2013-11-03 01:51:00,
2013-11-02 20:56:00,51.9,44.2,30.23,North,9,0.0,0.0,75,0.00,,,0.00,WeatherDisplay:10.37,2013-11-03 01:56:00,
2013-11-02 21:01:00,51.8,44.5,30.22,North,9,0.0,0.0,76,0.00,,,0.00,WeatherDisplay:10.37,2013-11-03 02:01:00,
2013-11-02 21:06:00,51.6,44.6,30.23,North,9,0.0,0.0,77,0.00,,,0.00,WeatherDisplay:10.37,2013-11-03 02:06:00,
2013-11-02 21:11:00,51.1,44.1,30.23,North,9,0.0,0.0,77,0.00,,,0.00,WeatherDisplay:10.37,2013-11-03 02:11:00,
2013-11-02 21:16:00,50.9,44.3,30.23,North,9,0.0,0.0,78,0.00,,,0.00,WeatherDisplay:10.37,2013-11-03 02:16:00,
2013-11-02 21:21:00,50.8,44.5,30.23,North,9,0.0,0.0,79,0.00,,,0.00,WeatherDisplay:10.37,2013-11-03 02:21:00,
2013-11-02 21:26:00,50.5,44.2,30.23,North,9,0.0,0.0,79,0.00,,,0.00,WeatherDisplay:10.37,2013-11-03 02:26:00,
2013-11-02 21:31:00,50.3,44.0,30.23,North,9,0.0,0.0,79,0.00,,,0.00,WeatherDisplay:10.37,2013-11-03 02:31:00,
2013-11-02 21:36:00,50.4,44.8,30.23,North,9,0.0,0.0,81,0.00,,,0.00,WeatherDisplay:10.37,2013-11-03 02:36:00,
2013-11-02 21:41:00,50.2,44.6,30.23,North,9,0.0,0.0,81,0.00,,,0.00,WeatherDisplay:10.37,2013-11-03 02:41:00,
2013-11-02 21:46:00,49.8,44.2,30.24,North,9,0.0,0.0,81,0.00,,,0.00,WeatherDisplay:10.37,2013-11-03 02:46:00,
2013-11-02 21:51:00,49.5,43.9,30.24,North,9,0.0,0.0,81,0.00,,,0.00,WeatherDisplay:10.37,2013-11-03 02:51:00,
2013-11-02 21:56:00,49.2,43.9,30.24,North,9,0.0,0.0,82,0.00,,,0.00,WeatherDisplay:10.37,2013-11-03 02:56:00,
2013-11-02 22:01:00,49.2,43.9,30.24,North,9,0.0,0.0,82,0.00,CLR,,0.00,WeatherDisplay:10.37,2013-11-03 03:01:00,
2013-11-02 22:06:00,48.9,44.0,30.23,North,9,0.0,0.0,83,0.00,CLR,,0.00,WeatherDisplay:10.37,2013-11-03 03:06:00,
2013-11-02 22:11:00,48.6,43.7,30.23,North,9,0.0,0.0,83,0.00,CLR,,0.00,WeatherDisplay:10.37,2013-11-03 03:11:00,
2013-11-02 22:16:00,48.5,43.6,30.23,North,9,0.0,0.0,83,0.00,CLR,,0.00,WeatherDisplay:10.37,2013-11-03 03:16:00,
2013-11-02 22:21:00,48.5,43.9,30.23,North,9,0.0,0.0,84,0.00,CLR,,0.00,WeatherDisplay:10.37,2013-11-03 03:21:00,
2013-11-02 22:26:00,48.6,44.3,30.23,North,9,0.0,0.0,85,0.00,CLR,,0.00,WeatherDisplay:10.37,2013-11-03 03:26:00,
2013-11-02 22:31:00,48.6,44.3,30.23,North,9,0.0,0.0,85,0.00,CLR,,0.00,WeatherDisplay:10.37,2013-11-03 03:31:00,
2013-11-02 22:36:00,48.3,44.0,30.23,North,9,0.0,0.0,85,0.00,CLR,,0.00,WeatherDisplay:10.37,2013-11-03 03:36:00,
2013-11-02 22:41:00,47.9,43.6,30.23,North,9,0.0,0.0,85,0.00,CLR,,0.00,WeatherDisplay:10.37,2013-11-03 03:41:00,
2013-11-02 22:46:00,47.8,43.5,30.23,North,9,0.0,0.0,85,0.00,CLR,,0.00,WeatherDisplay:10.37,2013-11-03 03:46:00,
2013-11-02 22:51:00,47.7,43.4,30.23,North,9,0.0,0.0,85,0.00,CLR,,0.00,WeatherDisplay:10.37,2013-11-03 03:51:00,
2013-11-02 22:56:00,47.6,43.6,30.23,North,9,0.0,0.0,86,0.00,CLR,,0.00,WeatherDisplay:10.37,2013-11-03 03:56:00,
2013-11-02 23:01:00,47.5,43.5,30.23,North,9,0.0,0.0,86,0.00,,,0.00,WeatherDisplay:10.37,2013-11-03 04:01:00,
2013-11-02 23:06:00,47.3,43.3,30.23,North,9,0.0,0.0,86,0.00,,,0.00,WeatherDisplay:10.37,2013-11-03 04:06:00,
2013-11-02 23:11:00,47.2,43.2,30.23,North,9,0.0,0.0,86,0.00,,,0.00,WeatherDisplay:10.37,2013-11-03 04:11:00,
2013-11-02 23:16:00,47.2,43.2,30.23,North,9,0.0,0.0,86,0.00,,,0.00,WeatherDisplay:10.37,2013-11-03 04:16:00,
2013-11-02 23:21:00,47.3,43.6,30.23,North,9,0.0,0.0,87,0.00,,,0.00,WeatherDisplay:10.37,2013-11-03 04:21:00,
2013-11-02 23:26:00,47.8,44.1,30.23,North,9,0.0,0.0,87,0.00,,,0.00,WeatherDisplay:10.37,2013-11-03 04:26:00,
2013-11-02 23:31:00,47.7,44.0,30.23,North,9,0.0,0.0,87,0.00,,,0.00,WeatherDisplay:10.37,2013-11-03 04:31:00,
2013-11-02 23:36:00,47.6,43.9,30.22,North,9,0.0,0.0,87,0.00,,,0.00,WeatherDisplay:10.37,2013-11-03 04:36:00,
2013-11-02 23:41:00,47.5,43.8,30.23,North,9,0.0,0.0,87,0.00,,,0.00,WeatherDisplay:10.37,2013-11-03 04:41:00,
2013-11-02 23:46:00,47.3,43.6,30.23,North,9,0.0,0.0,87,0.00,,,0.00,WeatherDisplay:10.37,2013-11-03 04:46:00,
2013-11-02 23:51:00,47.1,43.4,30.23,North,9,0.0,0.0,87,0.00,,,0.00,WeatherDisplay:10.37,2013-11-03 04:51:00,
2013-11-02 23:56:00,47.0,43.3,30.23,North,9,0.0,0.0,87,0.00,,,0.00,WeatherDisplay:10.37,2013-11-03 04:56:00,